Queen Of Cowichan — CZ4990 — position and weather

sailwx.info

Track history (hours):
 
Tides and Currents Weather Stations Pressure Air Temp Water Temp Dewpoint Dewpoint Depression Visibility Wind Speed Wind Dir Waves Ship Positions

Queen Of Cowichan

Last reported at 2015-Aug-27 20:33 UTC. Time now 2015-Aug-27 21:27 UTC.
Position N 49°19' W 123°23'.

Length 139 m; draft 5.5 m.

Type: Passenger vessel. MMSI: 316001251.

Date/timePositionNaut miles runAvg speedWind from/ knotsBaromVisibWave heightAir tempDewpointWater temp
2015-Aug-27 20:33N 49°19' W 123°23'2020.1
2015-Aug-27 19:34N 49°14' W 123°53'3 3.4
2015-Aug-27 18:33N 49°12' W 123°57'1918.7
2015-Aug-27 17:34N 49°18' W 123°31'1010.2
2015-Aug-27 16:33N 49°23' W 123°16'1414.0
2015-Aug-27 15:33N 49°16' W 123°36'1514.9
2015-Aug-27 14:33N 49°12' W 123°57'0 0.0
2015-Aug-27 13:21N 49°12' W 123°57'0 0.0
2015-Aug-27 11:27N 49°12' W 123°57'0 0.0
2015-Aug-27 10:15N 49°12' W 123°57'0 0.0
2015-Aug-27 09:27N 49°12' W 123°57'0 0.0
2015-Aug-27 08:09N 49°12' W 123°57'0 0.0
2015-Aug-27 07:27N 49°12' W 123°57'0 0.0
2015-Aug-27 06:30N 49°12' W 123°57'0 0.2
2015-Aug-27 03:33N 49°12' W 123°57'1919.1
2015-Aug-27 02:33N 49°17' W 123°29'10 9.7
2015-Aug-27 01:33N 49°23' W 123°16'1414.4
2015-Aug-27 00:33N 49°16' W 123°36'1514.4
2015-Aug-26 23:32N 49°12' W 123°57'1212.0
2015-Aug-26 22:34N 49°17' W 123°41'1717.2
2015-Aug-26 21:33N 49°23' W 123°16'4 3.7
2015-Aug-26 20:33N 49°20' W 123°20'2019.6
2015-Aug-26 19:33N 49°14' W 123°49'6 5.6
2015-Aug-26 18:28N 49°12' W 123°57'0 0.0
2015-Aug-26 12:30N 49°12' W 123°57'0 0.0
2015-Aug-26 08:18N 49°12' W 123°57'0 0.0
2015-Aug-25 23:16N 49°12' W 123°57'1115.7
2015-Aug-25 22:33N 49°16' W 123°42'1817.8
2015-Aug-25 21:33N 49°23' W 123°16'4 4.3
2015-Aug-25 20:33N 49°20' W 123°21'2019.6
2015-Aug-25 19:33N 49°14' W 123°50'5 5.4
2015-Aug-25 18:33N 49°12' W 123°57'0 0.0
2015-Aug-25 17:28N 49°12' W 123°57'0 0.0
2015-Aug-25 16:28N 49°12' W 123°57'0 0.0
2015-Aug-25 14:22N 49°12' W 123°57'0 0.0
2015-Aug-25 13:22N 49°12' W 123°57'0 0.0
2015-Aug-25 11:16N 49°12' W 123°57'0 0.0
2015-Aug-25 10:31N 49°12' W 123°57'0 0.0
2015-Aug-25 09:31N 49°12' W 123°57'0 0.0
2015-Aug-25 08:31N 49°12' W 123°57'0 0.0
2015-Aug-25 07:28N 49°12' W 123°57'0 0.0
2015-Aug-25 06:22N 49°12' W 123°57'0 0.0
2015-Aug-25 05:16N 49°12' W 123°57'0 0.0
2015-Aug-25 04:22N 49°12' W 123°57'7 9.1
2015-Aug-25 03:33N 49°15' W 123°47'2019.6
2015-Aug-25 02:33N 49°22' W 123°19'1 0.8
2015-Aug-25 01:33N 49°22' W 123°18'1919.3
2015-Aug-25 00:33N 49°15' W 123°46'8 7.9
2015-Aug-24 23:30N 49°12' W 123°57'1717.7
2015-Aug-24 22:33N 49°18' W 123°34'1212.2
2015-Aug-24 21:33N 49°23' W 123°16'6 6.5
2015-Aug-24 20:34N 49°18' W 123°23'1919.2
2015-Aug-24 19:34N 49°14' W 123°52'3 3.0
2015-Aug-24 18:33N 49°12' W 123°56'2019.8
2015-Aug-24 17:34N 49°19' W 123°28'8 8.3
2015-Aug-24 16:33N 49°23' W 123°16'1514.6
2015-Aug-24 15:33N 49°16' W 123°36'1414.3
2015-Aug-24 14:33N 49°12' W 123°57'0 0.0
2015-Aug-24 13:33N 49°12' W 123°57'0 0.0
2015-Aug-24 12:04N 49°12' W 123°57'0 0.0
2015-Aug-24 11:22N 49°12' W 123°57'0 0.0
2015-Aug-24 10:25N 49°12' W 123°57'0 0.0
2015-Aug-24 09:28N 49°12' W 123°57'0 0.0
2015-Aug-24 08:31N 49°12' W 123°57'5 4.7
2015-Aug-24 07:34N 49°14' W 123°51'2020.0
2015-Aug-24 06:33N 49°20' W 123°22'2 1.5
2015-Aug-24 05:33N 49°21' W 123°20'2019.7
2015-Aug-24 04:33N 49°14' W 123°49'6 5.9
2015-Aug-24 03:33N 49°12' W 123°57'1919.1
2015-Aug-24 02:33N 49°18' W 123°30'10 9.7
2015-Aug-24 01:33N 49°23' W 123°16'1414.1
2015-Aug-24 00:33N 49°16' W 123°36'1514.7
2015-Aug-23 23:33N 49°12' W 123°57'1010.3
2015-Aug-23 22:33N 49°16' W 123°43'1919.0
2015-Aug-23 21:34N 49°23' W 123°16'5 4.9
2015-Aug-23 20:34N 49°20' W 123°22'2019.9
2015-Aug-23 19:33N 49°14' W 123°51'5 2.3
2015-Aug-23 17:29N 49°12' W 123°57'0 0.0
2015-Aug-23 15:11N 49°12' W 123°57'0 0.0
2015-Aug-23 14:32N 49°12' W 123°57'0 0.0
2015-Aug-23 13:23N 49°12' W 123°57'0 0.0
2015-Aug-23 12:32N 49°12' W 123°57'0 0.0
2015-Aug-23 11:32N 49°12' W 123°57'0 0.0
2015-Aug-23 10:32N 49°12' W 123°57'0 0.0
2015-Aug-23 09:26N 49°12' W 123°57'0 0.0
2015-Aug-23 08:32N 49°12' W 123°57'0 0.0
2015-Aug-23 07:26N 49°12' W 123°57'0 0.0
2015-Aug-23 06:32N 49°12' W 123°57'0 0.0
2015-Aug-23 02:32N 49°12' W 123°57'0 0.0
2015-Aug-23 01:26N 49°12' W 123°57'0 0.0
2015-Aug-23 00:32N 49°12' W 123°57'0 0.0
2015-Aug-22 23:30N 49°12' W 123°57'1111.8
2015-Aug-22 22:33N 49°16' W 123°42'1818.0
2015-Aug-22 21:34N 49°23' W 123°16'6 5.6
2015-Aug-22 20:34N 49°19' W 123°22'2020.2
2015-Aug-22 19:34N 49°14' W 123°52'3 2.6
2015-Aug-22 18:33N 49°13' W 123°56'2019.9
2015-Aug-22 17:34N 49°19' W 123°27'8 7.8
2015-Aug-22 16:34N 49°23' W 123°16'1515.3
2015-Aug-22 15:33N 49°17' W 123°38'1412.7
2015-Aug-22 14:29N 49°12' W 123°57'0 0.0
2015-Aug-22 13:19N 49°12' W 123°57'0 0.0
2015-Aug-22 11:28N 49°12' W 123°57'0 0.0
2015-Aug-22 10:07N 49°12' W 123°57'0 0.0
2015-Aug-22 09:22N 49°12' W 123°57'0 0.0
2015-Aug-22 07:28N 49°12' W 123°57'0 0.0
2015-Aug-22 06:28N 49°12' W 123°57'0 0.0
2015-Aug-22 05:28N 49°12' W 123°57'0 0.0
2015-Aug-22 04:28N 49°12' W 123°57'7 7.4
2015-Aug-22 03:34N 49°15' W 123°48'2019.6
2015-Aug-22 02:34N 49°21' W 123°20'3 2.9
2015-Aug-22 01:34N 49°23' W 123°17'1818.3
2015-Aug-22 00:34N 49°15' W 123°42'1010.0
2015-Aug-21 23:32N 49°12' W 123°57'1313.2
2015-Aug-21 22:34N 49°17' W 123°40'1616.2
2015-Aug-21 21:33N 49°23' W 123°16'8 7.9
2015-Aug-21 20:33N 49°18' W 123°26'2019.8
2015-Aug-21 19:33N 49°13' W 123°55'1 1.2
2015-Aug-21 18:33N 49°13' W 123°54'2019.6
2015-Aug-21 17:33N 49°19' W 123°25'7 6.8
2015-Aug-21 16:34N 49°23' W 123°16'1514.7
2015-Aug-21 15:33N 49°16' W 123°36'1413.5
2015-Aug-21 14:30N 49°12' W 123°57'0 0.0
2015-Aug-21 13:19N 49°12' W 123°57'0 0.0
2015-Aug-21 12:31N 49°12' W 123°57'0 0.0
2015-Aug-21 11:31N 49°12' W 123°57'0 0.0
2015-Aug-21 10:31N 49°12' W 123°57'0 0.0
2015-Aug-21 09:31N 49°12' W 123°57'0 0.0
2015-Aug-21 08:31N 49°12' W 123°57'0 0.0
2015-Aug-21 07:28N 49°12' W 123°57'0 0.0
2015-Aug-21 04:31N 49°12' W 123°57'3 3.4
2015-Aug-21 03:33N 49°14' W 123°53'2019.6
2015-Aug-21 02:34N 49°18' W 123°24'7 6.9
2015-Aug-21 01:34N 49°23' W 123°16'1717.3
2015-Aug-21 00:33N 49°16' W 123°41'1211.6
2015-Aug-20 23:33N 49°12' W 123°57'1110.7
2015-Aug-20 22:34N 49°16' W 123°42'1918.6
2015-Aug-20 21:34N 49°23' W 123°16'4 4.2
2015-Aug-20 20:34N 49°20' W 123°20'2019.9
2015-Aug-20 19:34N 49°14' W 123°49'6 5.7
2015-Aug-20 18:33N 49°12' W 123°57'1918.7
2015-Aug-20 17:33N 49°18' W 123°30'1010.2
2015-Aug-20 16:34N 49°23' W 123°16'1414.0
2015-Aug-20 15:33N 49°16' W 123°35'1513.7
2015-Aug-20 14:28N 49°12' W 123°57'0 0.0
2015-Aug-20 13:32N 49°12' W 123°57'0 0.0
2015-Aug-20 12:14N 49°12' W 123°57'0 0.0
2015-Aug-20 11:32N 49°12' W 123°57'0 0.0
2015-Aug-20 10:32N 49°12' W 123°57'0 0.0
2015-Aug-20 09:26N 49°12' W 123°57'0 0.0
2015-Aug-20 08:32N 49°12' W 123°57'0 0.0
2015-Aug-20 07:32N 49°12' W 123°57'0 0.0
2015-Aug-20 06:32N 49°12' W 123°57'0 0.0
2015-Aug-20 05:32N 49°12' W 123°57'0 0.0
2015-Aug-20 04:32N 49°12' W 123°57'0 0.0
2015-Aug-20 03:32N 49°12' W 123°57'0 0.0
2015-Aug-20 02:32N 49°12' W 123°57'0 0.0
2015-Aug-19 23:14N 49°12' W 123°57'1116.1
2015-Aug-19 22:33N 49°16' W 123°42'1818.2
2015-Aug-19 21:34N 49°23' W 123°16'5 4.7
2015-Aug-19 20:34N 49°19' W 123°21'1919.4
2015-Aug-19 19:33N 49°14' W 123°50'5 5.4
2015-Aug-19 18:33N 49°12' W 123°57'0 0.0
2015-Aug-19 17:29N 49°12' W 123°57'0 0.0
2015-Aug-19 16:05N 49°12' W 123°57'0 0.0
2015-Aug-19 15:32N 49°12' W 123°57'0 0.0
2015-Aug-19 14:32N 49°12' W 123°57'0 0.0
2015-Aug-19 13:26N 49°12' W 123°57'0 0.0
2015-Aug-19 12:23N 49°12' W 123°57'0 0.0
2015-Aug-19 11:29N 49°12' W 123°57'0 0.0
2015-Aug-19 10:29N 49°12' W 123°57'0 0.0
2015-Aug-19 09:29N 49°12' W 123°57'0 0.0
2015-Aug-19 08:29N 49°12' W 123°57'0 0.0
2015-Aug-19 07:17N 49°12' W 123°57'0 0.0
2015-Aug-19 06:32N 49°12' W 123°57'0 0.0
2015-Aug-19 04:32N 49°12' W 123°57'0 0.0
2015-Aug-19 03:14N 49°12' W 123°57'0 0.0
2015-Aug-19 02:29N 49°12' W 123°57'0 0.0
2015-Aug-18 23:32N 49°12' W 123°57'1313.2
2015-Aug-18 22:33N 49°17' W 123°40'1616.1
2015-Aug-18 21:33N 49°23' W 123°16'5 5.0
2015-Aug-18 20:33N 49°19' W 123°22'2019.7
2015-Aug-18 19:33N 49°14' W 123°51'5 3.2
2015-Aug-18 18:05N 49°12' W 123°57'0 0.0
2015-Aug-18 17:29N 49°12' W 123°57'0 0.0
2015-Aug-18 15:20N 49°12' W 123°57'0 0.0
2015-Aug-18 14:14N 49°12' W 123°57'0 0.0
2015-Aug-18 13:26N 49°12' W 123°57'0 0.0
2015-Aug-18 11:26N 49°12' W 123°57'0 0.0
2015-Aug-18 10:29N 49°12' W 123°57'0 0.0
2015-Aug-18 09:29N 49°12' W 123°57'0 0.0
2015-Aug-18 08:32N 49°12' W 123°57'0 0.0
2015-Aug-18 07:32N 49°12' W 123°57'0 0.0
2015-Aug-18 06:32N 49°12' W 123°57'0 0.0
2015-Aug-18 05:29N 49°12' W 123°57'0 0.0
2015-Aug-18 04:32N 49°12' W 123°57'0 0.0
2015-Aug-18 04:08N 49°12' W 123°57'4 7.6
2015-Aug-18 03:34N 49°14' W 123°52'2020.0
2015-Aug-18 02:34N 49°20' W 123°22'5 4.8
2015-Aug-18 01:33N 49°23' W 123°16'1717.0
2015-Aug-18 00:33N 49°15' W 123°40'1211.9
2015-Aug-17 23:33N 49°12' W 123°57'1413.8
2015-Aug-17 22:34N 49°17' W 123°38'1515.2
2015-Aug-17 21:34N 49°23' W 123°16'6 6.2
2015-Aug-17 20:34N 49°18' W 123°23'  
Track history (hours):
 
Tides and Currents Weather Stations Pressure Air Temp Water Temp Dewpoint Dewpoint Depression Visibility Wind Speed Wind Dir Waves Ship Positions

Queen Of Cowichan

Last reported at 2015-Aug-27 20:33 UTC. Time now 2015-Aug-27 21:27 UTC.
Position N 49°19' W 123°23'.

Length 139 m; draft 5.5 m.

Type: Passenger vessel. MMSI: 316001251.

Date/timePositionNaut miles runAvg speedWind from/ knotsBaromVisibWave heightAir tempDewpointWater temp
2015-Aug-27 20:33N 49°19' W 123°23'2020.1
2015-Aug-27 19:34N 49°14' W 123°53'3 3.4
2015-Aug-27 18:33N 49°12' W 123°57'1918.7
2015-Aug-27 17:34N 49°18' W 123°31'1010.2
2015-Aug-27 16:33N 49°23' W 123°16'1414.0
2015-Aug-27 15:33N 49°16' W 123°36'1514.9
2015-Aug-27 14:33N 49°12' W 123°57'0 0.0
2015-Aug-27 13:21N 49°12' W 123°57'0 0.0
2015-Aug-27 11:27N 49°12' W 123°57'0 0.0
2015-Aug-27 10:15N 49°12' W 123°57'0 0.0
2015-Aug-27 09:27N 49°12' W 123°57'0 0.0
2015-Aug-27 08:09N 49°12' W 123°57'0 0.0
2015-Aug-27 07:27N 49°12' W 123°57'0 0.0
2015-Aug-27 06:30N 49°12' W 123°57'0 0.2
2015-Aug-27 03:33N 49°12' W 123°57'1919.1
2015-Aug-27 02:33N 49°17' W 123°29'10 9.7
2015-Aug-27 01:33N 49°23' W 123°16'1414.4
2015-Aug-27 00:33N 49°16' W 123°36'1514.4
2015-Aug-26 23:32N 49°12' W 123°57'1212.0
2015-Aug-26 22:34N 49°17' W 123°41'1717.2
2015-Aug-26 21:33N 49°23' W 123°16'4 3.7
2015-Aug-26 20:33N 49°20' W 123°20'2019.6
2015-Aug-26 19:33N 49°14' W 123°49'6 5.6
2015-Aug-26 18:28N 49°12' W 123°57'0 0.0
2015-Aug-26 12:30N 49°12' W 123°57'0 0.0
2015-Aug-26 08:18N 49°12' W 123°57'0 0.0
2015-Aug-25 23:16N 49°12' W 123°57'1115.7
2015-Aug-25 22:33N 49°16' W 123°42'1817.8
2015-Aug-25 21:33N 49°23' W 123°16'4 4.3
2015-Aug-25 20:33N 49°20' W 123°21'2019.6
2015-Aug-25 19:33N 49°14' W 123°50'5 5.4
2015-Aug-25 18:33N 49°12' W 123°57'0 0.0
2015-Aug-25 17:28N 49°12' W 123°57'0 0.0
2015-Aug-25 16:28N 49°12' W 123°57'0 0.0
2015-Aug-25 14:22N 49°12' W 123°57'0 0.0
2015-Aug-25 13:22N 49°12' W 123°57'0 0.0
2015-Aug-25 11:16N 49°12' W 123°57'0 0.0
2015-Aug-25 10:31N 49°12' W 123°57'0 0.0
2015-Aug-25 09:31N 49°12' W 123°57'0 0.0
2015-Aug-25 08:31N 49°12' W 123°57'0 0.0
2015-Aug-25 07:28N 49°12' W 123°57'0 0.0
2015-Aug-25 06:22N 49°12' W 123°57'0 0.0
2015-Aug-25 05:16N 49°12' W 123°57'0 0.0
2015-Aug-25 04:22N 49°12' W 123°57'7 9.1
2015-Aug-25 03:33N 49°15' W 123°47'2019.6
2015-Aug-25 02:33N 49°22' W 123°19'1 0.8
2015-Aug-25 01:33N 49°22' W 123°18'1919.3
2015-Aug-25 00:33N 49°15' W 123°46'8 7.9
2015-Aug-24 23:30N 49°12' W 123°57'1717.7
2015-Aug-24 22:33N 49°18' W 123°34'1212.2
2015-Aug-24 21:33N 49°23' W 123°16'6 6.5
2015-Aug-24 20:34N 49°18' W 123°23'1919.2
2015-Aug-24 19:34N 49°14' W 123°52'3 3.0
2015-Aug-24 18:33N 49°12' W 123°56'2019.8
2015-Aug-24 17:34N 49°19' W 123°28'8 8.3
2015-Aug-24 16:33N 49°23' W 123°16'1514.6
2015-Aug-24 15:33N 49°16' W 123°36'1414.3
2015-Aug-24 14:33N 49°12' W 123°57'0 0.0
2015-Aug-24 13:33N 49°12' W 123°57'0 0.0
2015-Aug-24 12:04N 49°12' W 123°57'0 0.0
2015-Aug-24 11:22N 49°12' W 123°57'0 0.0
2015-Aug-24 10:25N 49°12' W 123°57'0 0.0
2015-Aug-24 09:28N 49°12' W 123°57'0 0.0
2015-Aug-24 08:31N 49°12' W 123°57'5 4.7
2015-Aug-24 07:34N 49°14' W 123°51'2020.0
2015-Aug-24 06:33N 49°20' W 123°22'2 1.5
2015-Aug-24 05:33N 49°21' W 123°20'2019.7
2015-Aug-24 04:33N 49°14' W 123°49'6 5.9
2015-Aug-24 03:33N 49°12' W 123°57'1919.1
2015-Aug-24 02:33N 49°18' W 123°30'10 9.7
2015-Aug-24 01:33N 49°23' W 123°16'1414.1
2015-Aug-24 00:33N 49°16' W 123°36'1514.7
2015-Aug-23 23:33N 49°12' W 123°57'1010.3
2015-Aug-23 22:33N 49°16' W 123°43'1919.0
2015-Aug-23 21:34N 49°23' W 123°16'5 4.9
2015-Aug-23 20:34N 49°20' W 123°22'2019.9
2015-Aug-23 19:33N 49°14' W 123°51'5 2.3
2015-Aug-23 17:29N 49°12' W 123°57'0 0.0
2015-Aug-23 15:11N 49°12' W 123°57'0 0.0
2015-Aug-23 14:32N 49°12' W 123°57'0 0.0
2015-Aug-23 13:23N 49°12' W 123°57'0 0.0
2015-Aug-23 12:32N 49°12' W 123°57'0 0.0
2015-Aug-23 11:32N 49°12' W 123°57'0 0.0
2015-Aug-23 10:32N 49°12' W 123°57'0 0.0
2015-Aug-23 09:26N 49°12' W 123°57'0 0.0
2015-Aug-23 08:32N 49°12' W 123°57'0 0.0
2015-Aug-23 07:26N 49°12' W 123°57'0 0.0
2015-Aug-23 06:32N 49°12' W 123°57'0 0.0
2015-Aug-23 02:32N 49°12' W 123°57'0 0.0
2015-Aug-23 01:26N 49°12' W 123°57'0 0.0
2015-Aug-23 00:32N 49°12' W 123°57'0 0.0
2015-Aug-22 23:30N 49°12' W 123°57'1111.8
2015-Aug-22 22:33N 49°16' W 123°42'1818.0
2015-Aug-22 21:34N 49°23' W 123°16'6 5.6
2015-Aug-22 20:34N 49°19' W 123°22'2020.2
2015-Aug-22 19:34N 49°14' W 123°52'3 2.6
2015-Aug-22 18:33N 49°13' W 123°56'2019.9
2015-Aug-22 17:34N 49°19' W 123°27'8 7.8
2015-Aug-22 16:34N 49°23' W 123°16'1515.3
2015-Aug-22 15:33N 49°17' W 123°38'1412.7
2015-Aug-22 14:29N 49°12' W 123°57'0 0.0
2015-Aug-22 13:19N 49°12' W 123°57'0 0.0
2015-Aug-22 11:28N 49°12' W 123°57'0 0.0
2015-Aug-22 10:07N 49°12' W 123°57'0 0.0
2015-Aug-22 09:22N 49°12' W 123°57'0 0.0
2015-Aug-22 07:28N 49°12' W 123°57'0 0.0
2015-Aug-22 06:28N 49°12' W 123°57'0 0.0
2015-Aug-22 05:28N 49°12' W 123°57'0 0.0
2015-Aug-22 04:28N 49°12' W 123°57'7 7.4
2015-Aug-22 03:34N 49°15' W 123°48'2019.6
2015-Aug-22 02:34N 49°21' W 123°20'3 2.9
2015-Aug-22 01:34N 49°23' W 123°17'1818.3
2015-Aug-22 00:34N 49°15' W 123°42'1010.0
2015-Aug-21 23:32N 49°12' W 123°57'1313.2
2015-Aug-21 22:34N 49°17' W 123°40'1616.2
2015-Aug-21 21:33N 49°23' W 123°16'8 7.9
2015-Aug-21 20:33N 49°18' W 123°26'2019.8
2015-Aug-21 19:33N 49°13' W 123°55'1 1.2
2015-Aug-21 18:33N 49°13' W 123°54'2019.6
2015-Aug-21 17:33N 49°19' W 123°25'7 6.8
2015-Aug-21 16:34N 49°23' W 123°16'1514.7
2015-Aug-21 15:33N 49°16' W 123°36'1413.5
2015-Aug-21 14:30N 49°12' W 123°57'0 0.0
2015-Aug-21 13:19N 49°12' W 123°57'0 0.0
2015-Aug-21 12:31N 49°12' W 123°57'0 0.0
2015-Aug-21 11:31N 49°12' W 123°57'0 0.0
2015-Aug-21 10:31N 49°12' W 123°57'0 0.0
2015-Aug-21 09:31N 49°12' W 123°57'0 0.0
2015-Aug-21 08:31N 49°12' W 123°57'0 0.0
2015-Aug-21 07:28N 49°12' W 123°57'0 0.0
2015-Aug-21 04:31N 49°12' W 123°57'3 3.4
2015-Aug-21 03:33N 49°14' W 123°53'2019.6
2015-Aug-21 02:34N 49°18' W 123°24'7 6.9
2015-Aug-21 01:34N 49°23' W 123°16'1717.3
2015-Aug-21 00:33N 49°16' W 123°41'1211.6
2015-Aug-20 23:33N 49°12' W 123°57'1110.7
2015-Aug-20 22:34N 49°16' W 123°42'1918.6
2015-Aug-20 21:34N 49°23' W 123°16'4 4.2
2015-Aug-20 20:34N 49°20' W 123°20'2019.9
2015-Aug-20 19:34N 49°14' W 123°49'6 5.7
2015-Aug-20 18:33N 49°12' W 123°57'1918.7
2015-Aug-20 17:33N 49°18' W 123°30'1010.2
2015-Aug-20 16:34N 49°23' W 123°16'1414.0
2015-Aug-20 15:33N 49°16' W 123°35'1513.7
2015-Aug-20 14:28N 49°12' W 123°57'0 0.0
2015-Aug-20 13:32N 49°12' W 123°57'0 0.0
2015-Aug-20 12:14N 49°12' W 123°57'0 0.0
2015-Aug-20 11:32N 49°12' W 123°57'0 0.0
2015-Aug-20 10:32N 49°12' W 123°57'0 0.0
2015-Aug-20 09:26N 49°12' W 123°57'0 0.0
2015-Aug-20 08:32N 49°12' W 123°57'0 0.0
2015-Aug-20 07:32N 49°12' W 123°57'0 0.0
2015-Aug-20 06:32N 49°12' W 123°57'0 0.0
2015-Aug-20 05:32N 49°12' W 123°57'0 0.0
2015-Aug-20 04:32N 49°12' W 123°57'0 0.0
2015-Aug-20 03:32N 49°12' W 123°57'0 0.0
2015-Aug-20 02:32N 49°12' W 123°57'0 0.0
2015-Aug-19 23:14N 49°12' W 123°57'1116.1
2015-Aug-19 22:33N 49°16' W 123°42'1818.2
2015-Aug-19 21:34N 49°23' W 123°16'5 4.7
2015-Aug-19 20:34N 49°19' W 123°21'1919.4
2015-Aug-19 19:33N 49°14' W 123°50'5 5.4
2015-Aug-19 18:33N 49°12' W 123°57'0 0.0
2015-Aug-19 17:29N 49°12' W 123°57'0 0.0
2015-Aug-19 16:05N 49°12' W 123°57'0 0.0
2015-Aug-19 15:32N 49°12' W 123°57'0 0.0
2015-Aug-19 14:32N 49°12' W 123°57'0 0.0
2015-Aug-19 13:26N 49°12' W 123°57'0 0.0
2015-Aug-19 12:23N 49°12' W 123°57'0 0.0
2015-Aug-19 11:29N 49°12' W 123°57'0 0.0
2015-Aug-19 10:29N 49°12' W 123°57'0 0.0
2015-Aug-19 09:29N 49°12' W 123°57'0 0.0
2015-Aug-19 08:29N 49°12' W 123°57'0 0.0
2015-Aug-19 07:17N 49°12' W 123°57'0 0.0
2015-Aug-19 06:32N 49°12' W 123°57'0 0.0
2015-Aug-19 04:32N 49°12' W 123°57'0 0.0
2015-Aug-19 03:14N 49°12' W 123°57'0 0.0
2015-Aug-19 02:29N 49°12' W 123°57'0 0.0
2015-Aug-18 23:32N 49°12' W 123°57'1313.2
2015-Aug-18 22:33N 49°17' W 123°40'1616.1
2015-Aug-18 21:33N 49°23' W 123°16'5 5.0
2015-Aug-18 20:33N 49°19' W 123°22'2019.7
2015-Aug-18 19:33N 49°14' W 123°51'5 3.2
2015-Aug-18 18:05N 49°12' W 123°57'0 0.0
2015-Aug-18 17:29N 49°12' W 123°57'0 0.0
2015-Aug-18 15:20N 49°12' W 123°57'0 0.0
2015-Aug-18 14:14N 49°12' W 123°57'0 0.0
2015-Aug-18 13:26N 49°12' W 123°57'0 0.0
2015-Aug-18 11:26N 49°12' W 123°57'0 0.0
2015-Aug-18 10:29N 49°12' W 123°57'0 0.0
2015-Aug-18 09:29N 49°12' W 123°57'0 0.0
2015-Aug-18 08:32N 49°12' W 123°57'0 0.0
2015-Aug-18 07:32N 49°12' W 123°57'0 0.0
2015-Aug-18 06:32N 49°12' W 123°57'0 0.0
2015-Aug-18 05:29N 49°12' W 123°57'0 0.0
2015-Aug-18 04:32N 49°12' W 123°57'0 0.0
2015-Aug-18 04:08N 49°12' W 123°57'4 7.6
2015-Aug-18 03:34N 49°14' W 123°52'2020.0
2015-Aug-18 02:34N 49°20' W 123°22'5 4.8
2015-Aug-18 01:33N 49°23' W 123°16'1717.0
2015-Aug-18 00:33N 49°15' W 123°40'1211.9
2015-Aug-17 23:33N 49°12' W 123°57'1413.8
2015-Aug-17 22:34N 49°17' W 123°38'1515.2
2015-Aug-17 21:34N 49°23' W 123°16'6 6.2
2015-Aug-17 20:34N 49°18' W 123°23'  

Dump ship's entire track history